sensor_id;sensor_type;location;lat;lon;timestamp;temperature;humidity
55634;DHT22;41504;53.162;6.788;2022-10-16T00:01:21;12.40;91.10
55634;DHT22;41504;53.162;6.788;2022-10-16T00:03:50;12.50;91.00
55634;DHT22;41504;53.162;6.788;2022-10-16T00:06:20;12.50;91.00
55634;DHT22;41504;53.162;6.788;2022-10-16T00:08:47;12.40;91.00
55634;DHT22;41504;53.162;6.788;2022-10-16T00:11:19;12.50;91.00
55634;DHT22;41504;53.162;6.788;2022-10-16T00:13:47;12.40;91.00
55634;DHT22;41504;53.162;6.788;2022-10-16T00:16:14;12.40;91.00
55634;DHT22;41504;53.162;6.788;2022-10-16T00:18:40;12.40;91.10
55634;DHT22;41504;53.162;6.788;2022-10-16T00:21:12;12.40;91.10
55634;DHT22;41504;53.162;6.788;2022-10-16T00:23:39;12.40;91.10
55634;DHT22;41504;53.162;6.788;2022-10-16T00:26:11;12.40;91.10
55634;DHT22;41504;53.162;6.788;2022-10-16T00:28:37;12.40;91.10
55634;DHT22;41504;53.162;6.788;2022-10-16T00:31:08;12.40;91.10
55634;DHT22;41504;53.162;6.788;2022-10-16T00:33:35;12.40;91.10
55634;DHT22;41504;53.162;6.788;2022-10-16T00:36:03;12.40;91.10
55634;DHT22;41504;53.162;6.788;2022-10-16T00:38:29;12.40;91.10
55634;DHT22;41504;53.162;6.788;2022-10-16T00:40:55;12.30;91.10
55634;DHT22;41504;53.162;6.788;2022-10-16T00:43:47;12.30;91.10
55634;DHT22;41504;53.162;6.788;2022-10-16T00:46:37;12.40;91.10
55634;DHT22;41504;53.162;6.788;2022-10-16T00:49:12;12.40;91.10
55634;DHT22;41504;53.162;6.788;2022-10-16T00:51:47;12.40;91.10
55634;DHT22;41504;53.162;6.788;2022-10-16T00:54:17;12.40;91.10
55634;DHT22;41504;53.162;6.788;2022-10-16T00:56:45;12.30;91.10
55634;DHT22;41504;53.162;6.788;2022-10-16T00:59:29;12.30;91.10
55634;DHT22;41504;53.162;6.788;2022-10-16T01:01:54;12.40;91.00
55634;DHT22;41504;53.162;6.788;2022-10-16T01:04:21;12.40;91.00
55634;DHT22;41504;53.162;6.788;2022-10-16T01:12:42;12.40;90.90
55634;DHT22;41504;53.162;6.788;2022-10-16T01:17:50;12.40;91.00
55634;DHT22;41504;53.162;6.788;2022-10-16T01:20:35;12.40;91.00
55634;DHT22;41504;53.162;6.788;2022-10-16T01:23:09;12.40;91.00
55634;DHT22;41504;53.162;6.788;2022-10-16T01:25:49;12.40;91.10
55634;DHT22;41504;53.162;6.788;2022-10-16T01:28:19;12.40;91.00
55634;DHT22;41504;53.162;6.788;2022-10-16T01:30:47;12.40;91.10
55634;DHT22;41504;53.162;6.788;2022-10-16T01:33:30;12.40;91.10
55634;DHT22;41504;53.162;6.788;2022-10-16T01:36:00;12.40;91.10
55634;DHT22;41504;53.162;6.788;2022-10-16T01:38:33;12.30;91.10
55634;DHT22;41504;53.162;6.788;2022-10-16T01:41:13;12.30;91.10
55634;DHT22;41504;53.162;6.788;2022-10-16T01:43:45;12.40;91.20
55634;DHT22;41504;53.162;6.788;2022-10-16T01:46:13;12.30;91.20
55634;DHT22;41504;53.162;6.788;2022-10-16T01:48:41;12.30;91.20
55634;DHT22;41504;53.162;6.788;2022-10-16T01:51:10;12.30;91.20
55634;DHT22;41504;53.162;6.788;2022-10-16T01:53:37;12.40;91.20
55634;DHT22;41504;53.162;6.788;2022-10-16T01:56:07;12.30;91.10
55634;DHT22;41504;53.162;6.788;2022-10-16T01:58:47;12.40;91.10
55634;DHT22;41504;53.162;6.788;2022-10-16T02:01:17;12.40;91.10
55634;DHT22;41504;53.162;6.788;2022-10-16T02:03:44;12.40;90.90
55634;DHT22;41504;53.162;6.788;2022-10-16T02:06:12;12.40;90.90
55634;DHT22;41504;53.162;6.788;2022-10-16T02:08:38;12.40;90.90
55634;DHT22;41504;53.162;6.788;2022-10-16T02:11:06;12.40;90.80
55634;DHT22;41504;53.162;6.788;2022-10-16T02:13:51;12.40;90.80
55634;DHT22;41504;53.162;6.788;2022-10-16T02:16:18;12.40;90.70
55634;DHT22;41504;53.162;6.788;2022-10-16T02:18:44;12.40;90.80
55634;DHT22;41504;53.162;6.788;2022-10-16T02:21:22;12.40;90.80
55634;DHT22;41504;53.162;6.788;2022-10-16T02:26:28;12.40;90.60
55634;DHT22;41504;53.162;6.788;2022-10-16T02:29:00;12.40;90.60
55634;DHT22;41504;53.162;6.788;2022-10-16T02:31:29;12.50;90.60
55634;DHT22;41504;53.162;6.788;2022-10-16T02:34:01;12.50;90.60
55634;DHT22;41504;53.162;6.788;2022-10-16T02:36:31;12.40;90.60
55634;DHT22;41504;53.162;6.788;2022-10-16T02:38:58;12.50;90.60
55634;DHT22;41504;53.162;6.788;2022-10-16T02:41:26;12.40;90.60
55634;DHT22;41504;53.162;6.788;2022-10-16T02:43:52;12.50;90.50
55634;DHT22;41504;53.162;6.788;2022-10-16T02:46:20;12.50;90.50
55634;DHT22;41504;53.162;6.788;2022-10-16T02:48:46;12.50;90.50
55634;DHT22;41504;53.162;6.788;2022-10-16T02:51:12;12.50;90.50
55634;DHT22;41504;53.162;6.788;2022-10-16T02:53:37;12.50;90.50
55634;DHT22;41504;53.162;6.788;2022-10-16T02:56:03;12.50;90.50
55634;DHT22;41504;53.162;6.788;2022-10-16T02:58:29;12.60;90.50
55634;DHT22;41504;53.162;6.788;2022-10-16T03:00:55;12.50;90.40
55634;DHT22;41504;53.162;6.788;2022-10-16T03:03:21;12.60;90.20
55634;DHT22;41504;53.162;6.788;2022-10-16T03:05:46;12.60;90.10
55634;DHT22;41504;53.162;6.788;2022-10-16T03:08:13;12.70;90.10
55634;DHT22;41504;53.162;6.788;2022-10-16T03:10:38;12.60;90.10
55634;DHT22;41504;53.162;6.788;2022-10-16T03:13:04;12.70;90.10
55634;DHT22;41504;53.162;6.788;2022-10-16T03:15:30;12.70;90.00
55634;DHT22;41504;53.162;6.788;2022-10-16T03:17:59;12.70;90.00
55634;DHT22;41504;53.162;6.788;2022-10-16T03:20:26;12.70;90.00
55634;DHT22;41504;53.162;6.788;2022-10-16T03:22:52;12.70;90.00
55634;DHT22;41504;53.162;6.788;2022-10-16T03:25:17;12.70;90.00
55634;DHT22;41504;53.162;6.788;2022-10-16T03:27:43;12.70;89.90
55634;DHT22;41504;53.162;6.788;2022-10-16T03:30:10;12.70;89.70
55634;DHT22;41504;53.162;6.788;2022-10-16T03:32:37;12.70;89.50
55634;DHT22;41504;53.162;6.788;2022-10-16T03:35:03;12.80;89.50
55634;DHT22;41504;53.162;6.788;2022-10-16T03:37:29;12.80;89.50
55634;DHT22;41504;53.162;6.788;2022-10-16T03:39:55;12.80;89.50
55634;DHT22;41504;53.162;6.788;2022-10-16T03:42:21;12.70;89.60
55634;DHT22;41504;53.162;6.788;2022-10-16T03:44:46;12.80;89.60
55634;DHT22;41504;53.162;6.788;2022-10-16T03:47:12;12.80;89.60
55634;DHT22;41504;53.162;6.788;2022-10-16T03:49:38;12.70;89.60
55634;DHT22;41504;53.162;6.788;2022-10-16T03:52:03;12.80;89.60
55634;DHT22;41504;53.162;6.788;2022-10-16T03:54:29;12.70;89.50
55634;DHT22;41504;53.162;6.788;2022-10-16T03:56:55;12.80;89.60
55634;DHT22;41504;53.162;6.788;2022-10-16T03:59:20;12.70;89.60
55634;DHT22;41504;53.162;6.788;2022-10-16T04:01:46;12.70;89.60
55634;DHT22;41504;53.162;6.788;2022-10-16T04:04:12;12.70;89.80
55634;DHT22;41504;53.162;6.788;2022-10-16T04:06:37;12.70;89.90
55634;DHT22;41504;53.162;6.788;2022-10-16T04:09:03;12.70;90.00
55634;DHT22;41504;53.162;6.788;2022-10-16T04:11:29;12.60;89.90
55634;DHT22;41504;53.162;6.788;2022-10-16T04:13:55;12.70;90.00
55634;DHT22;41504;53.162;6.788;2022-10-16T04:16:20;12.60;90.00
55634;DHT22;41504;53.162;6.788;2022-10-16T04:18:46;12.60;90.00
55634;DHT22;41504;53.162;6.788;2022-10-16T04:21:12;12.60;90.20
55634;DHT22;41504;53.162;6.788;2022-10-16T04:23:37;12.60;90.00
55634;DHT22;41504;53.162;6.788;2022-10-16T04:26:03;12.60;90.00
55634;DHT22;41504;53.162;6.788;2022-10-16T04:28:29;12.60;90.00
55634;DHT22;41504;53.162;6.788;2022-10-16T04:30:55;12.60;89.90
55634;DHT22;41504;53.162;6.788;2022-10-16T04:33:21;12.60;89.80
55634;DHT22;41504;53.162;6.788;2022-10-16T04:35:47;12.60;89.80
55634;DHT22;41504;53.162;6.788;2022-10-16T04:38:13;12.60;90.00
55634;DHT22;41504;53.162;6.788;2022-10-16T04:40:38;12.60;90.00
55634;DHT22;41504;53.162;6.788;2022-10-16T04:43:05;12.60;90.00
55634;DHT22;41504;53.162;6.788;2022-10-16T04:45:31;12.60;90.00
55634;DHT22;41504;53.162;6.788;2022-10-16T04:47:58;12.60;90.00
55634;DHT22;41504;53.162;6.788;2022-10-16T04:50:24;12.60;90.10
55634;DHT22;41504;53.162;6.788;2022-10-16T04:52:49;12.60;90.10
55634;DHT22;41504;53.162;6.788;2022-10-16T04:55:15;12.40;90.20
55634;DHT22;41504;53.162;6.788;2022-10-16T04:57:41;12.50;90.20
55634;DHT22;41504;53.162;6.788;2022-10-16T05:00:07;12.60;90.20
55634;DHT22;41504;53.162;6.788;2022-10-16T05:02:33;12.50;90.20
55634;DHT22;41504;53.162;6.788;2022-10-16T05:04:59;12.50;90.30
55634;DHT22;41504;53.162;6.788;2022-10-16T05:07:25;12.60;90.30
55634;DHT22;41504;53.162;6.788;2022-10-16T05:09:51;12.60;90.20
55634;DHT22;41504;53.162;6.788;2022-10-16T05:12:16;12.60;90.20
55634;DHT22;41504;53.162;6.788;2022-10-16T05:14:42;12.70;90.20
55634;DHT22;41504;53.162;6.788;2022-10-16T05:17:08;12.70;90.30
55634;DHT22;41504;53.162;6.788;2022-10-16T05:19:34;12.70;90.30
55634;DHT22;41504;53.162;6.788;2022-10-16T05:22:00;12.70;90.40
55634;DHT22;41504;53.162;6.788;2022-10-16T05:24:26;12.70;90.50
55634;DHT22;41504;53.162;6.788;2022-10-16T05:26:52;12.70;90.50
55634;DHT22;41504;53.162;6.788;2022-10-16T05:29:19;12.70;90.60
55634;DHT22;41504;53.162;6.788;2022-10-16T05:31:45;12.70;90.60
55634;DHT22;41504;53.162;6.788;2022-10-16T05:34:10;12.60;90.60
55634;DHT22;41504;53.162;6.788;2022-10-16T05:36:36;12.60;90.70
55634;DHT22;41504;53.162;6.788;2022-10-16T05:39:03;12.60;90.70
55634;DHT22;41504;53.162;6.788;2022-10-16T05:41:29;12.60;90.70
55634;DHT22;41504;53.162;6.788;2022-10-16T05:43:54;12.60;90.80
55634;DHT22;41504;53.162;6.788;2022-10-16T05:46:20;12.60;90.80
55634;DHT22;41504;53.162;6.788;2022-10-16T05:48:46;12.60;90.80
55634;DHT22;41504;53.162;6.788;2022-10-16T05:51:13;12.60;90.80
55634;DHT22;41504;53.162;6.788;2022-10-16T05:53:40;12.60;90.90
55634;DHT22;41504;53.162;6.788;2022-10-16T05:56:10;12.60;90.90
55634;DHT22;41504;53.162;6.788;2022-10-16T05:58:37;12.70;90.90
55634;DHT22;41504;53.162;6.788;2022-10-16T17:12:32;14.50;78.70
55634;DHT22;41504;53.162;6.788;2022-10-16T17:14:58;14.40;76.90
55634;DHT22;41504;53.162;6.788;2022-10-16T17:17:24;14.30;77.90
55634;DHT22;41504;53.162;6.788;2022-10-16T17:19:51;14.30;78.80
55634;DHT22;41504;53.162;6.788;2022-10-16T17:22:17;14.30;79.40
55634;DHT22;41504;53.162;6.788;2022-10-16T17:24:43;14.20;79.90
55634;DHT22;41504;53.162;6.788;2022-10-16T17:27:09;14.20;80.50
55634;DHT22;41504;53.162;6.788;2022-10-16T17:29:37;14.10;81.00
55634;DHT22;41504;53.162;6.788;2022-10-16T17:32:03;14.10;81.40
55634;DHT22;41504;53.162;6.788;2022-10-16T17:34:29;14.00;81.70
55634;DHT22;41504;53.162;6.788;2022-10-16T17:36:54;14.00;82.00
55634;DHT22;41504;53.162;6.788;2022-10-16T17:39:20;14.00;82.20
55634;DHT22;41504;53.162;6.788;2022-10-16T17:41:48;14.00;82.40
55634;DHT22;41504;53.162;6.788;2022-10-16T17:44:14;13.90;82.50
55634;DHT22;41504;53.162;6.788;2022-10-16T17:46:49;13.90;82.80
55634;DHT22;41504;53.162;6.788;2022-10-16T17:49:16;13.90;82.90
55634;DHT22;41504;53.162;6.788;2022-10-16T17:51:41;13.90;83.00
55634;DHT22;41504;53.162;6.788;2022-10-16T17:54:07;13.80;83.00
55634;DHT22;41504;53.162;6.788;2022-10-16T17:56:34;13.90;83.20
55634;DHT22;41504;53.162;6.788;2022-10-16T17:59:01;13.80;83.20
55634;DHT22;41504;53.162;6.788;2022-10-16T18:01:33;13.80;83.20
55634;DHT22;41504;53.162;6.788;2022-10-16T18:04:03;13.80;83.30
55634;DHT22;41504;53.162;6.788;2022-10-16T18:06:30;13.70;83.40
55634;DHT22;41504;53.162;6.788;2022-10-16T18:08:57;13.70;83.50
55634;DHT22;41504;53.162;6.788;2022-10-16T18:11:23;13.80;83.50
55634;DHT22;41504;53.162;6.788;2022-10-16T18:13:54;13.70;83.50
55634;DHT22;41504;53.162;6.788;2022-10-16T18:16:25;13.70;83.50
55634;DHT22;41504;53.162;6.788;2022-10-16T18:18:55;13.70;83.50
55634;DHT22;41504;53.162;6.788;2022-10-16T18:21:25;13.70;83.40
55634;DHT22;41504;53.162;6.788;2022-10-16T18:23:55;13.70;83.40
55634;DHT22;41504;53.162;6.788;2022-10-16T18:26:22;13.60;83.60
55634;DHT22;41504;53.162;6.788;2022-10-16T18:28:54;13.60;83.70
55634;DHT22;41504;53.162;6.788;2022-10-16T18:31:24;13.60;83.70
55634;DHT22;41504;53.162;6.788;2022-10-16T18:33:50;13.60;84.40
55634;DHT22;41504;53.162;6.788;2022-10-16T18:36:19;13.50;83.90
55634;DHT22;41504;53.162;6.788;2022-10-16T18:38:45;13.60;83.90
55634;DHT22;41504;53.162;6.788;2022-10-16T18:41:11;13.60;83.90
55634;DHT22;41504;53.162;6.788;2022-10-16T18:43:38;13.60;83.90
55634;DHT22;41504;53.162;6.788;2022-10-16T18:46:26;13.60;83.90
55634;DHT22;41504;53.162;6.788;2022-10-16T18:48:51;13.50;83.80
55634;DHT22;41504;53.162;6.788;2022-10-16T18:53:57;13.50;84.00
55634;DHT22;41504;53.162;6.788;2022-10-16T18:56:29;13.50;84.10
55634;DHT22;41504;53.162;6.788;2022-10-16T18:58:55;13.50;84.10
55634;DHT22;41504;53.162;6.788;2022-10-16T19:01:27;13.50;84.10
55634;DHT22;41504;53.162;6.788;2022-10-16T19:03:58;13.40;84.10
55634;DHT22;41504;53.162;6.788;2022-10-16T19:06:28;13.50;84.10
55634;DHT22;41504;53.162;6.788;2022-10-16T19:08:58;13.50;84.20
55634;DHT22;41504;53.162;6.788;2022-10-16T19:11:28;13.40;84.20
55634;DHT22;41504;53.162;6.788;2022-10-16T19:13:55;13.50;84.20
55634;DHT22;41504;53.162;6.788;2022-10-16T19:16:27;13.40;84.20
55634;DHT22;41504;53.162;6.788;2022-10-16T19:18:56;13.40;84.20
55634;DHT22;41504;53.162;6.788;2022-10-16T19:21:22;13.40;84.30
55634;DHT22;41504;53.162;6.788;2022-10-16T19:23:59;13.40;84.30
55634;DHT22;41504;53.162;6.788;2022-10-16T19:26:30;13.40;84.30
55634;DHT22;41504;53.162;6.788;2022-10-16T19:28:58;13.40;84.40
55634;DHT22;41504;53.162;6.788;2022-10-16T19:31:27;13.30;84.40
55634;DHT22;41504;53.162;6.788;2022-10-16T19:33:57;13.30;84.50
55634;DHT22;41504;53.162;6.788;2022-10-16T19:39:00;13.30;84.80
55634;DHT22;41504;53.162;6.788;2022-10-16T19:41:29;13.30;84.80
55634;DHT22;41504;53.162;6.788;2022-10-16T19:44:03;13.30;84.90
55634;DHT22;41504;53.162;6.788;2022-10-16T19:46:29;13.30;84.90
55634;DHT22;41504;53.162;6.788;2022-10-16T19:48:57;13.30;84.90
55634;DHT22;41504;53.162;6.788;2022-10-16T19:51:24;13.30;84.90
55634;DHT22;41504;53.162;6.788;2022-10-16T19:53:57;13.30;85.00
55634;DHT22;41504;53.162;6.788;2022-10-16T19:56:24;13.30;85.00
55634;DHT22;41504;53.162;6.788;2022-10-16T19:58:51;13.30;85.10
55634;DHT22;41504;53.162;6.788;2022-10-16T20:01:18;13.30;85.10
55634;DHT22;41504;53.162;6.788;2022-10-16T20:03:45;13.30;85.00
55634;DHT22;41504;53.162;6.788;2022-10-16T20:06:13;13.30;85.10
55634;DHT22;41504;53.162;6.788;2022-10-16T20:08:39;13.20;85.10
55634;DHT22;41504;53.162;6.788;2022-10-16T20:11:10;13.20;85.10
55634;DHT22;41504;53.162;6.788;2022-10-16T20:13:36;13.20;85.20
55634;DHT22;41504;53.162;6.788;2022-10-16T20:16:03;13.20;85.20
55634;DHT22;41504;53.162;6.788;2022-10-16T20:18:33;13.20;85.30
55634;DHT22;41504;53.162;6.788;2022-10-16T20:20:59;13.20;85.30
55634;DHT22;41504;53.162;6.788;2022-10-16T20:23:25;13.10;85.20
55634;DHT22;41504;53.162;6.788;2022-10-16T20:25:51;13.10;85.30
55634;DHT22;41504;53.162;6.788;2022-10-16T20:28:19;13.10;85.60
55634;DHT22;41504;53.162;6.788;2022-10-16T20:30:47;13.10;85.70
55634;DHT22;41504;53.162;6.788;2022-10-16T20:33:13;13.10;85.60
55634;DHT22;41504;53.162;6.788;2022-10-16T20:35:44;13.10;85.60
55634;DHT22;41504;53.162;6.788;2022-10-16T20:38:11;13.10;85.70
55634;DHT22;41504;53.162;6.788;2022-10-16T20:40:39;13.10;85.60
55634;DHT22;41504;53.162;6.788;2022-10-16T20:43:06;13.10;85.70
55634;DHT22;41504;53.162;6.788;2022-10-16T20:45:35;13.10;85.70
55634;DHT22;41504;53.162;6.788;2022-10-16T20:48:04;13.20;85.70
55634;DHT22;41504;53.162;6.788;2022-10-16T20:50:48;13.20;85.70
55634;DHT22;41504;53.162;6.788;2022-10-16T20:53:14;13.20;85.80
55634;DHT22;41504;53.162;6.788;2022-10-16T20:55:39;13.20;85.80
55634;DHT22;41504;53.162;6.788;2022-10-16T20:58:05;13.20;85.80
55634;DHT22;41504;53.162;6.788;2022-10-16T21:00:31;13.20;85.80
55634;DHT22;41504;53.162;6.788;2022-10-16T21:02:57;13.10;85.80
55634;DHT22;41504;53.162;6.788;2022-10-16T21:05:23;13.10;85.70
55634;DHT22;41504;53.162;6.788;2022-10-16T21:07:49;13.10;85.80
55634;DHT22;41504;53.162;6.788;2022-10-16T21:10:18;13.10;85.80
55634;DHT22;41504;53.162;6.788;2022-10-16T21:12:44;13.10;85.90
55634;DHT22;41504;53.162;6.788;2022-10-16T21:15:10;13.10;85.80
55634;DHT22;41504;53.162;6.788;2022-10-16T21:17:40;13.10;85.80
55634;DHT22;41504;53.162;6.788;2022-10-16T21:20:06;13.10;85.80
55634;DHT22;41504;53.162;6.788;2022-10-16T21:22:32;13.10;85.80
55634;DHT22;41504;53.162;6.788;2022-10-16T21:24:58;13.10;85.90
55634;DHT22;41504;53.162;6.788;2022-10-16T21:27:23;13.10;85.80
55634;DHT22;41504;53.162;6.788;2022-10-16T21:29:52;13.10;85.80
55634;DHT22;41504;53.162;6.788;2022-10-16T21:32:18;13.10;85.80
55634;DHT22;41504;53.162;6.788;2022-10-16T21:34:45;13.10;85.70
55634;DHT22;41504;53.162;6.788;2022-10-16T21:37:12;13.10;85.70
55634;DHT22;41504;53.162;6.788;2022-10-16T21:39:40;13.10;85.70
55634;DHT22;41504;53.162;6.788;2022-10-16T21:42:06;13.10;85.70
55634;DHT22;41504;53.162;6.788;2022-10-16T21:44:32;13.10;85.80
55634;DHT22;41504;53.162;6.788;2022-10-16T21:46:57;13.10;85.70
55634;DHT22;41504;53.162;6.788;2022-10-16T21:49:23;13.10;85.70
55634;DHT22;41504;53.162;6.788;2022-10-16T21:51:50;13.10;85.70
55634;DHT22;41504;53.162;6.788;2022-10-16T21:54:23;13.10;85.70
55634;DHT22;41504;53.162;6.788;2022-10-16T21:56:49;13.10;85.70
55634;DHT22;41504;53.162;6.788;2022-10-16T21:59:15;13.10;85.70
55634;DHT22;41504;53.162;6.788;2022-10-16T22:01:44;13.10;85.70
55634;DHT22;41504;53.162;6.788;2022-10-16T22:04:14;13.10;85.70
55634;DHT22;41504;53.162;6.788;2022-10-16T22:06:40;13.00;85.70
55634;DHT22;41504;53.162;6.788;2022-10-16T22:09:09;13.00;85.80
55634;DHT22;41504;53.162;6.788;2022-10-16T22:11:38;13.00;85.80
55634;DHT22;41504;53.162;6.788;2022-10-16T22:14:11;13.00;85.90
55634;DHT22;41504;53.162;6.788;2022-10-16T22:16:38;13.00;85.90
55634;DHT22;41504;53.162;6.788;2022-10-16T22:19:05;13.00;86.50
55634;DHT22;41504;53.162;6.788;2022-10-16T22:21:37;13.00;86.00
55634;DHT22;41504;53.162;6.788;2022-10-16T22:24:04;13.00;86.50
55634;DHT22;41504;53.162;6.788;2022-10-16T22:26:31;13.00;86.00
55634;DHT22;41504;53.162;6.788;2022-10-16T22:28:57;13.00;86.00
55634;DHT22;41504;53.162;6.788;2022-10-16T22:31:22;13.00;86.00
55634;DHT22;41504;53.162;6.788;2022-10-16T22:33:59;13.00;86.00
55634;DHT22;41504;53.162;6.788;2022-10-16T22:36:26;13.00;86.00
55634;DHT22;41504;53.162;6.788;2022-10-16T22:38:52;13.00;86.10
55634;DHT22;41504;53.162;6.788;2022-10-16T22:41:18;13.00;86.00
55634;DHT22;41504;53.162;6.788;2022-10-16T22:43:46;13.00;86.00
55634;DHT22;41504;53.162;6.788;2022-10-16T22:46:20;13.00;86.10
55634;DHT22;41504;53.162;6.788;2022-10-16T22:48:47;13.00;86.10
55634;DHT22;41504;53.162;6.788;2022-10-16T22:51:13;13.00;86.10
55634;DHT22;41504;53.162;6.788;2022-10-16T22:53:39;13.00;86.10
55634;DHT22;41504;53.162;6.788;2022-10-16T22:56:06;13.10;86.20
55634;DHT22;41504;53.162;6.788;2022-10-16T22:58:32;13.10;86.20
55634;DHT22;41504;53.162;6.788;2022-10-16T23:00:58;13.10;86.10
55634;DHT22;41504;53.162;6.788;2022-10-16T23:03:27;13.10;86.10
55634;DHT22;41504;53.162;6.788;2022-10-16T23:05:53;13.10;86.20
55634;DHT22;41504;53.162;6.788;2022-10-16T23:08:19;13.10;86.30
55634;DHT22;41504;53.162;6.788;2022-10-16T23:10:48;13.10;86.30
55634;DHT22;41504;53.162;6.788;2022-10-16T23:13:14;13.20;86.30
55634;DHT22;41504;53.162;6.788;2022-10-16T23:15:44;13.20;86.80
55634;DHT22;41504;53.162;6.788;2022-10-16T23:18:10;13.10;86.20
55634;DHT22;41504;53.162;6.788;2022-10-16T23:20:39;13.20;86.20
55634;DHT22;41504;53.162;6.788;2022-10-16T23:23:06;13.10;86.20
55634;DHT22;41504;53.162;6.788;2022-10-16T23:25:32;13.10;86.20
55634;DHT22;41504;53.162;6.788;2022-10-16T23:27:58;13.10;86.20
55634;DHT22;41504;53.162;6.788;2022-10-16T23:30:24;13.10;86.30
55634;DHT22;41504;53.162;6.788;2022-10-16T23:32:49;13.00;86.20
55634;DHT22;41504;53.162;6.788;2022-10-16T23:35:15;13.10;86.40
55634;DHT22;41504;53.162;6.788;2022-10-16T23:37:40;13.00;86.40
55634;DHT22;41504;53.162;6.788;2022-10-16T23:40:09;13.00;86.50
55634;DHT22;41504;53.162;6.788;2022-10-16T23:42:35;12.90;86.60
55634;DHT22;41504;53.162;6.788;2022-10-16T23:45:01;12.80;86.70
55634;DHT22;41504;53.162;6.788;2022-10-16T23:47:26;12.90;86.80
55634;DHT22;41504;53.162;6.788;2022-10-16T23:49:52;12.80;86.80
55634;DHT22;41504;53.162;6.788;2022-10-16T23:52:18;12.80;86.80
55634;DHT22;41504;53.162;6.788;2022-10-16T23:54:43;12.80;86.90
55634;DHT22;41504;53.162;6.788;2022-10-16T23:57:09;12.80;87.00
55634;DHT22;41504;53.162;6.788;2022-10-16T23:59:35;12.80;87.00
